Time;durP1;ratioP1;P1;durP2;ratioP2;P2;SDS_P1;SDS_P2;PMS_P1;PMS_P2;Temp;Humidity;BMP_temperature;BMP_pressure;BME280_temperature;BME280_humidity;BME280_pressure;Samples;Min_cycle;Max_cycle;Signal;HPM_P1;HPM_P2
2022/07/17 00:01:36;;;;;;;2.03;1.23;;;;;;;;;;5126462;27;20047;-74
2022/07/17 00:04:06;;;;;;;0.80;0.50;;;;;;;;;;5127381;27;20036;-71
2022/07/17 00:06:35;;;;;;;1.63;0.50;;;;;;;;;;5127250;27;20039;-71
2022/07/17 00:09:06;;;;;;;0.50;0.50;;;;;;;;;;5126145;27;20035;-72
2022/07/17 00:11:36;;;;;;;1.00;0.50;;;;;;;;;;5126613;27;20051;-73
2022/07/17 00:14:06;;;;;;;0.75;0.70;;;;;;;;;;5126586;27;20052;-73
2022/07/17 00:16:37;;;;;;;0.35;0.32;;;;;;;;;;5124620;27;20112;-73
2022/07/17 00:19:07;;;;;;;0.50;0.20;;;;;;;;;;5126587;27;20050;-72
2022/07/17 00:21:37;;;;;;;3.88;0.40;;;;;;;;;;5126710;28;20055;-72
2022/07/17 00:24:07;;;;;;;0.45;0.30;;;;;;;;;;5126279;28;20050;-71
2022/07/17 00:26:37;;;;;;;0.20;0.20;;;;;;;;;;5126494;28;20055;-72
2022/07/17 00:29:06;;;;;;;;;;;;;;;;;;5128220;28;20062;-71
2022/07/17 00:31:36;;;;;;;1.48;0.40;;;;;;;;;;5126222;28;20279;-73
2022/07/17 00:34:06;;;;;;;1.05;0.50;;;;;;;;;;5127012;28;20062;-73
2022/07/17 00:36:35;;;;;;;;;;;;;;;;;;5126911;28;20061;-72
2022/07/17 00:39:05;;;;;;;1.10;0.40;;;;;;;;;;5125186;28;19927;-72
2022/07/17 00:41:34;;;;;;;;;;;;;;;;;;5127003;28;20569;-72
2022/07/17 00:44:09;;;;;;;0.75;0.50;;;;;;;;;;5126716;28;19923;-73
2022/07/17 00:46:40;;;;;;;1.45;0.50;;;;;;;;;;5125038;28;20038;-72
2022/07/17 00:49:10;;;;;;;0.55;0.45;;;;;;;;;;5126009;28;20039;-72
2022/07/17 00:51:41;;;;;;;0.30;0.20;;;;;;;;;;5125548;27;20421;-74
2022/07/17 00:54:13;;;;;;;0.20;0.20;;;;;;;;;;5126457;27;20521;-71
2022/07/17 00:56:47;;;;;;;0.47;0.30;;;;;;;;;;5129591;27;20498;-73
2022/07/17 00:59:19;;;;;;;0.30;0.30;;;;;;;;;;5128533;27;20065;-72
2022/07/17 01:01:49;;;;;;;0.20;0.10;;;;;;;;;;5129991;27;20070;-72
2022/07/17 01:04:22;;;;;;;0.63;0.30;;;;;;;;;;5130669;27;20046;-71
2022/07/17 01:06:52;;;;;;;0.50;0.32;;;;;;;;;;5127425;27;20043;-73
2022/07/17 01:09:22;;;;;;;0.30;0.30;;;;;;;;;;5130375;27;20063;-74
2022/07/17 01:11:52;;;;;;;0.80;0.32;;;;;;;;;;5128589;27;20050;-73
2022/07/17 01:14:24;;;;;;;0.63;0.40;;;;;;;;;;5130779;27;20509;-72
2022/07/17 01:16:55;;;;;;;0.93;0.30;;;;;;;;;;5130680;27;20043;-74
2022/07/17 01:19:25;;;;;;;0.85;0.30;;;;;;;;;;5130875;27;20050;-71
2022/07/17 01:21:55;;;;;;;0.98;0.40;;;;;;;;;;5130649;27;20521;-73
2022/07/17 01:24:25;;;;;;;0.40;0.20;;;;;;;;;;5129911;27;20051;-73
2022/07/17 01:26:55;;;;;;;0.90;0.30;;;;;;;;;;5131253;27;20508;-73
2022/07/17 01:29:25;;;;;;;1.50;0.40;;;;;;;;;;5130734;27;20051;-72
2022/07/17 01:31:55;;;;;;;0.63;0.30;;;;;;;;;;5130741;27;20055;-73
2022/07/17 01:34:24;;;;;;;1.17;0.30;;;;;;;;;;5130519;27;20039;-73
2022/07/17 01:36:54;;;;;;;1.13;0.40;;;;;;;;;;5130429;27;20043;-73
2022/07/17 01:42:12;;;;;;;0.45;0.30;;;;;;;;;;5130413;27;19957;-72
2022/07/17 01:44:42;;;;;;;1.40;0.40;;;;;;;;;;5130094;27;20059;-72
2022/07/17 01:47:16;;;;;;;1.55;0.35;;;;;;;;;;5130328;27;20062;-73
2022/07/17 01:49:49;;;;;;;2.05;0.50;;;;;;;;;;5129868;27;20043;-71
2022/07/17 01:52:20;;;;;;;2.72;0.43;;;;;;;;;;5130478;27;20050;-70
2022/07/17 01:54:51;;;;;;;1.90;0.43;;;;;;;;;;5130105;27;20402;-75
2022/07/17 01:57:22;;;;;;;0.70;0.20;;;;;;;;;;5130198;27;20071;-71
2022/07/17 01:59:51;;;;;;;2.22;0.20;;;;;;;;;;5130667;27;20043;-72
2022/07/17 02:02:21;;;;;;;;;;;;;;;;;;5131619;27;20051;-73
2022/07/17 02:04:50;;;;;;;0.20;0.10;;;;;;;;;;5130144;27;20485;-73
2022/07/17 02:07:21;;;;;;;0.10;0.10;;;;;;;;;;5130139;27;20426;-72
2022/07/17 02:09:50;;;;;;;;;;;;;;;;;;5130139;27;20043;-73
2022/07/17 02:12:20;;;;;;;0.90;0.20;;;;;;;;;;5129987;27;19927;-73
2022/07/17 02:14:50;;;;;;;0.32;0.20;;;;;;;;;;5129987;27;20047;-74
2022/07/17 02:17:19;;;;;;;;;;;;;;;;;;5129248;27;20548;-73
2022/07/17 02:19:49;;;;;;;0.45;0.32;;;;;;;;;;5130232;27;19926;-73
2022/07/17 02:22:19;;;;;;;0.20;0.20;;;;;;;;;;5129247;27;20043;-73
2022/07/17 02:24:50;;;;;;;0.17;0.10;;;;;;;;;;5129700;27;20047;-73
2022/07/17 02:27:19;;;;;;;;;;;;;;;;;;5130596;27;20043;-72
2022/07/17 02:29:49;;;;;;;0.52;0.50;;;;;;;;;;5128806;27;19920;-71
2022/07/17 02:32:20;;;;;;;0.10;0.10;;;;;;;;;;5129432;27;20054;-73
2022/07/17 02:34:49;;;;;;;;;;;;;;;;;;5129632;27;20039;-73
2022/07/17 02:37:19;;;;;;;3.97;0.32;;;;;;;;;;5130386;27;19930;-74
2022/07/17 02:39:55;;;;;;;0.20;0.20;;;;;;;;;;5129552;27;20035;-72
2022/07/17 02:42:27;;;;;;;1.20;0.10;;;;;;;;;;5129507;27;20039;-71
2022/07/17 02:44:59;;;;;;;0.40;0.28;;;;;;;;;;5129158;27;20085;-72
2022/07/17 02:47:32;;;;;;;0.05;0.00;;;;;;;;;;5129302;27;20039;-71
2022/07/17 02:50:08;;;;;;;0.13;0.13;;;;;;;;;;5129188;27;20050;-71
2022/07/17 02:52:39;;;;;;;0.15;0.15;;;;;;;;;;5129432;27;20043;-71
2022/07/17 02:55:08;;;;;;;;;;;;;;;;;;5129705;27;20046;-73
2022/07/17 02:57:38;;;;;;;1.42;0.10;;;;;;;;;;5129590;27;19919;-72
2022/07/17 03:00:12;;;;;;;2.63;0.20;;;;;;;;;;5128452;27;20051;-71
2022/07/17 03:02:45;;;;;;;0.03;0.00;;;;;;;;;;5129200;27;20403;-71
2022/07/17 03:05:17;;;;;;;0.30;0.10;;;;;;;;;;5128867;27;20089;-74
2022/07/17 03:07:47;;;;;;;0.17;0.10;;;;;;;;;;5129037;27;20054;-73
2022/07/17 03:10:17;;;;;;;0.90;0.17;;;;;;;;;;5126988;27;20587;-72
2022/07/17 03:12:46;;;;;;;;;;;;;;;;;;5129690;27;20047;-72
2022/07/17 03:15:16;;;;;;;0.28;0.03;;;;;;;;;;5128973;27;19950;-72
2022/07/17 03:17:46;;;;;;;0.88;0.10;;;;;;;;;;5128945;27;20051;-73
2022/07/17 03:20:18;;;;;;;0.20;0.10;;;;;;;;;;5128186;27;20042;-72
2022/07/17 03:22:48;;;;;;;;;;;;;;;;;;5129223;27;20058;-72
2022/07/17 03:25:18;;;;;;;2.42;0.25;;;;;;;;;;5126853;27;19930;-73
2022/07/17 03:27:48;;;;;;;0.65;0.10;;;;;;;;;;5128272;27;20069;-72
2022/07/17 03:30:18;;;;;;;0.17;0.17;;;;;;;;;;5128369;27;20043;-72
2022/07/17 03:32:48;;;;;;;0.00;0.00;;;;;;;;;;5127574;27;20043;-72
2022/07/17 03:35:18;;;;;;;1.17;0.20;;;;;;;;;;5128549;27;20054;-72
2022/07/17 03:37:48;;;;;;;0.85;0.20;;;;;;;;;;5128333;27;20047;-72
2022/07/17 03:40:18;;;;;;;0.10;0.10;;;;;;;;;;5128074;27;20035;-72
2022/07/17 03:42:47;;;;;;;0.22;0.22;;;;;;;;;;5128425;27;20047;-73
2022/07/17 03:45:19;;;;;;;0.10;0.10;;;;;;;;;;5127839;27;20051;-71
2022/07/17 03:47:48;;;;;;;0.20;0.20;;;;;;;;;;5127848;27;20058;-72
2022/07/17 03:50:18;;;;;;;0.10;0.10;;;;;;;;;;5128039;27;20050;-71
2022/07/17 03:52:48;;;;;;;3.00;0.20;;;;;;;;;;5128052;27;20058;-76
2022/07/17 03:55:18;;;;;;;0.10;0.10;;;;;;;;;;5127949;27;20502;-72
2022/07/17 03:57:47;;;;;;;;;;;;;;;;;;5128600;27;20047;-71
2022/07/17 04:00:17;;;;;;;0.98;0.30;;;;;;;;;;5128536;27;19919;-70
2022/07/17 04:02:47;;;;;;;0.63;0.20;;;;;;;;;;5126054;27;20059;-71
2022/07/17 04:05:17;;;;;;;1.05;0.20;;;;;;;;;;5127188;27;20054;-71
2022/07/17 04:07:46;;;;;;;;;;;;;;;;;;5127622;27;20043;-71
2022/07/17 04:10:16;;;;;;;0.55;0.20;;;;;;;;;;5126977;27;20309;-71
2022/07/17 04:12:45;;;;;;;;;;;;;;;;;;5128143;27;20047;-71
2022/07/17 04:15:49;;;;;;;0.40;0.32;;;;;;;;;;5127884;27;19931;-71
2022/07/17 04:18:05;;;;;;;0.68;0.30;;;;;;;;;;5127589;27;20039;-70
2022/07/17 04:20:34;;;;;;;;;;;;;;;;;;5128414;27;20394;-71
2022/07/17 04:23:05;;;;;;;1.95;0.20;;;;;;;;;;5127811;28;19927;-70
2022/07/17 04:25:35;;;;;;;0.10;0.10;;;;;;;;;;5127816;28;20054;-72
2022/07/17 04:28:06;;;;;;;1.40;0.10;;;;;;;;;;5126542;27;20138;-74
2022/07/17 04:30:36;;;;;;;0.60;0.10;;;;;;;;;;5132091;27;20513;-73
2022/07/17 04:33:06;;;;;;;0.10;0.10;;;;;;;;;;5131428;27;20699;-70
2022/07/17 04:35:36;;;;;;;0.10;0.00;;;;;;;;;;5131606;27;20429;-71
2022/07/17 04:38:08;;;;;;;0.70;0.20;;;;;;;;;;5131541;27;20047;-72
2022/07/17 04:40:39;;;;;;;0.10;0.10;;;;;;;;;;5130328;27;20054;-72
2022/07/17 04:43:09;;;;;;;0.20;0.10;;;;;;;;;;5131479;27;20073;-75
2022/07/17 04:45:39;;;;;;;0.20;0.20;;;;;;;;;;5131994;27;20063;-71
2022/07/17 04:48:09;;;;;;;0.20;0.10;;;;;;;;;;5132118;27;20616;-71
2022/07/17 04:50:38;;;;;;;;;;;;;;;;;;5131912;27;20051;-70
2022/07/17 04:53:08;;;;;;;0.00;0.00;;;;;;;;;;5131222;27;20401;-69
2022/07/17 04:55:38;;;;;;;0.00;0.00;;;;;;;;;;5131784;27;20043;-70
2022/07/17 04:58:08;;;;;;;0.65;0.10;;;;;;;;;;5131119;27;20047;-71
2022/07/17 05:00:37;;;;;;;;;;;;;;;;;;5131886;27;20054;-71
2022/07/17 05:03:07;;;;;;;0.10;0.10;;;;;;;;;;5129948;27;19923;-71
2022/07/17 05:05:40;;;;;;;0.00;0.00;;;;;;;;;;5131059;27;20042;-70
2022/07/17 05:08:10;;;;;;;0.20;0.20;;;;;;;;;;5131258;27;20478;-73
2022/07/17 05:10:39;;;;;;;;;;;;;;;;;;5131438;27;20078;-71
2022/07/17 05:13:09;;;;;;;0.10;0.03;;;;;;;;;;5131185;27;19923;-71
2022/07/17 05:15:38;;;;;;;;;;;;;;;;;;5131667;27;20054;-71
2022/07/17 05:18:08;;;;;;;0.10;0.10;;;;;;;;;;5130665;27;19985;-70
2022/07/17 05:20:39;;;;;;;;;;;;;;;;;;5131560;27;20039;-72
2022/07/17 05:23:09;;;;;;;0.65;0.30;;;;;;;;;;5129553;27;19923;-71
2022/07/17 05:25:39;;;;;;;;;;;;;;;;;;5131434;27;20078;-71
2022/07/17 05:28:09;;;;;;;0.75;0.10;;;;;;;;;;5131021;27;19923;-70
2022/07/17 05:30:39;;;;;;;0.30;0.30;;;;;;;;;;5129379;27;20058;-71
2022/07/17 05:33:08;;;;;;;0.20;0.20;;;;;;;;;;5131300;27;20039;-70
2022/07/17 05:35:38;;;;;;;0.45;0.13;;;;;;;;;;5130542;27;20047;-71
2022/07/17 05:38:09;;;;;;;0.22;0.10;;;;;;;;;;5130667;27;20035;-69
2022/07/17 05:40:40;;;;;;;0.20;0.20;;;;;;;;;;5129965;27;20493;-72
2022/07/17 05:43:09;;;;;;;;;;;;;;;;;;5131066;27;20050;-69
2022/07/17 05:45:39;;;;;;;1.20;0.10;;;;;;;;;;5130738;27;19923;-69
2022/07/17 05:48:08;;;;;;;;;;;;;;;;;;5130808;27;20050;-70
2022/07/17 05:50:38;;;;;;;0.10;0.10;;;;;;;;;;5130619;27;19919;-72
2022/07/17 05:53:08;;;;;;;0.10;0.10;;;;;;;;;;5130618;27;20039;-70
2022/07/17 05:55:37;;;;;;;0.22;0.17;;;;;;;;;;5130240;27;20043;-71
2022/07/17 05:58:08;;;;;;;0.10;0.10;;;;;;;;;;5130416;27;20046;-70
2022/07/17 06:00:39;;;;;;;0.30;0.08;;;;;;;;;;5129775;27;20039;-71
2022/07/17 06:03:08;;;;;;;0.10;0.10;;;;;;;;;;5129871;27;20044;-71
2022/07/17 06:05:38;;;;;;;0.10;0.10;;;;;;;;;;5130453;27;20414;-69
2022/07/17 06:08:08;;;;;;;3.03;0.10;;;;;;;;;;5130147;27;20055;-69
2022/07/17 06:10:38;;;;;;;0.03;0.03;;;;;;;;;;5129990;27;20043;-71
2022/07/17 06:13:08;;;;;;;0.10;0.10;;;;;;;;;;5130412;27;20047;-69
2022/07/17 06:15:38;;;;;;;0.15;0.15;;;;;;;;;;5129699;27;20043;-72
2022/07/17 06:18:10;;;;;;;0.17;0.17;;;;;;;;;;5130305;27;20482;-70
2022/07/17 06:20:39;;;;;;;;;;;;;;;;;;5129996;27;20050;-71
2022/07/17 06:23:09;;;;;;;0.45;0.30;;;;;;;;;;5129791;27;19927;-72
2022/07/17 06:25:38;;;;;;;0.20;0.20;;;;;;;;;;5129698;27;20043;-72
2022/07/17 06:28:08;;;;;;;0.10;0.10;;;;;;;;;;5129665;27;20054;-71
2022/07/17 06:30:38;;;;;;;0.55;0.20;;;;;;;;;;5129834;27;20047;-71
2022/07/17 06:33:07;;;;;;;;;;;;;;;;;;5129839;27;20043;-70
2022/07/17 06:35:37;;;;;;;0.05;0.00;;;;;;;;;;5129463;27;20327;-71
2022/07/17 06:38:13;;;;;;;;;;;;;;;;;;5129992;27;20047;-71
2022/07/17 06:40:43;;;;;;;0.45;0.10;;;;;;;;;;5130264;27;19930;-71
2022/07/17 06:43:13;;;;;;;0.05;0.03;;;;;;;;;;5128178;27;20047;-71
2022/07/17 06:45:42;;;;;;;0.10;0.10;;;;;;;;;;5129017;27;20055;-70
2022/07/17 06:48:12;;;;;;;;;;;;;;;;;;5129655;27;20034;-70
2022/07/17 06:50:42;;;;;;;0.10;0.10;;;;;;;;;;5128879;27;19923;-71
2022/07/17 06:53:13;;;;;;;1.30;0.00;;;;;;;;;;5129046;27;20043;-70
2022/07/17 06:55:43;;;;;;;2.42;0.20;;;;;;;;;;5129372;27;20482;-71
2022/07/17 06:58:13;;;;;;;0.10;0.10;;;;;;;;;;5128969;27;20050;-70
2022/07/17 07:00:43;;;;;;;0.00;0.00;;;;;;;;;;5128640;27;20046;-71
2022/07/17 07:03:13;;;;;;;1.85;0.20;;;;;;;;;;5127640;27;20043;-71
2022/07/17 07:05:43;;;;;;;0.00;0.00;;;;;;;;;;5129281;27;20112;-71
2022/07/17 07:08:13;;;;;;;0.00;0.00;;;;;;;;;;5128918;27;20039;-70
2022/07/17 07:10:44;;;;;;;;;;;;;;;;;;5127232;27;20062;-70
2022/07/17 07:13:14;;;;;;;0.00;0.00;;;;;;;;;;5128120;27;19927;-71
2022/07/17 07:15:45;;;;;;;0.00;0.00;;;;;;;;;;5128384;27;20070;-70
2022/07/17 07:18:16;;;;;;;0.25;0.10;;;;;;;;;;5129280;27;20058;-71
2022/07/17 07:20:46;;;;;;;0.17;0.17;;;;;;;;;;5128607;27;20039;-71
2022/07/17 07:23:15;;;;;;;0.00;0.00;;;;;;;;;;5128414;27;20417;-70
2022/07/17 07:25:46;;;;;;;0.10;0.10;;;;;;;;;;5128686;27;20047;-71
2022/07/17 07:28:16;;;;;;;0.00;0.00;;;;;;;;;;5128194;27;20062;-72
2022/07/17 07:30:46;;;;;;;0.00;0.00;;;;;;;;;;5128340;27;20054;-70
2022/07/17 07:33:16;;;;;;;0.00;0.00;;;;;;;;;;5128536;27;20073;-71
2022/07/17 07:35:46;;;;;;;0.13;0.13;;;;;;;;;;5128032;27;20055;-72
2022/07/17 07:38:16;;;;;;;0.10;0.10;;;;;;;;;;5128635;27;20498;-71
2022/07/17 07:40:46;;;;;;;0.00;0.00;;;;;;;;;;5128486;27;20047;-70
2022/07/17 07:43:16;;;;;;;;;;;;;;;;;;5128624;27;20039;-70
2022/07/17 07:45:46;;;;;;;1.85;0.10;;;;;;;;;;5128336;27;19920;-70
2022/07/17 07:48:16;;;;;;;0.10;0.10;;;;;;;;;;5128532;27;20047;-69
2022/07/17 07:50:45;;;;;;;0.90;0.10;;;;;;;;;;5128285;27;20047;-69
2022/07/17 07:53:18;;;;;;;0.00;0.00;;;;;;;;;;5128189;27;20047;-71
2022/07/17 07:55:49;;;;;;;0.08;0.08;;;;;;;;;;5127939;27;20039;-71
2022/07/17 07:58:19;;;;;;;0.05;0.05;;;;;;;;;;5128547;27;20057;-69
2022/07/17 08:00:49;;;;;;;4.38;0.30;;;;;;;;;;5127894;27;20047;-71
2022/07/17 08:03:18;;;;;;;;;;;;;;;;;;5127999;27;20047;-70
2022/07/17 08:05:53;;;;;;;0.20;0.20;;;;;;;;;;5127694;27;19919;-72
2022/07/17 08:08:24;;;;;;;0.10;0.10;;;;;;;;;;5128072;27;20050;-71
2022/07/17 08:10:55;;;;;;;0.10;0.10;;;;;;;;;;5127819;27;20043;-71
2022/07/17 08:13:25;;;;;;;0.50;0.10;;;;;;;;;;5127804;27;20062;-70
2022/07/17 08:15:54;;;;;;;0.10;0.10;;;;;;;;;;5127538;27;20070;-71
2022/07/17 08:18:26;;;;;;;0.08;0.00;;;;;;;;;;5128123;27;20047;-71
2022/07/17 08:20:56;;;;;;;0.65;0.60;;;;;;;;;;5127343;27;20502;-70
2022/07/17 08:23:27;;;;;;;0.77;0.13;;;;;;;;;;5128065;27;20156;-70
2022/07/17 08:25:56;;;;;;;2.22;0.30;;;;;;;;;;5127246;28;20055;-70
2022/07/17 08:28:26;;;;;;;0.10;0.10;;;;;;;;;;5128040;28;20058;-71
2022/07/17 08:30:55;;;;;;;;;;;;;;;;;;5127447;28;20081;-70
2022/07/17 08:33:25;;;;;;;0.00;0.00;;;;;;;;;;5127847;28;19930;-69
2022/07/17 08:35:55;;;;;;;0.20;0.20;;;;;;;;;;5127767;28;20047;-71
2022/07/17 08:38:25;;;;;;;0.00;0.00;;;;;;;;;;5127915;28;20043;-70
2022/07/17 08:40:57;;;;;;;0.20;0.10;;;;;;;;;;5127619;28;20517;-71
2022/07/17 08:43:27;;;;;;;0.00;0.00;;;;;;;;;;5127587;28;20058;-70
2022/07/17 08:45:58;;;;;;;0.00;0.00;;;;;;;;;;5127749;28;20051;-70
2022/07/17 08:48:31;;;;;;;0.00;0.00;;;;;;;;;;5126955;28;20062;-71
2022/07/17 08:51:01;;;;;;;0.55;0.10;;;;;;;;;;5127780;28;20394;-69
2022/07/17 08:53:31;;;;;;;0.40;0.10;;;;;;;;;;5127359;28;20066;-71
2022/07/17 08:56:01;;;;;;;0.10;0.10;;;;;;;;;;5127571;28;20051;-72
2022/07/17 08:58:31;;;;;;;0.00;0.00;;;;;;;;;;5127774;28;20409;-71
2022/07/17 09:01:01;;;;;;;0.00;0.00;;;;;;;;;;5127156;28;20054;-70
2022/07/17 09:03:30;;;;;;;;;;;;;;;;;;5127284;28;20051;-70
2022/07/17 09:06:03;;;;;;;0.00;0.00;;;;;;;;;;5127736;28;19932;-71
2022/07/17 09:08:35;;;;;;;0.80;0.03;;;;;;;;;;5127319;28;20051;-70
2022/07/17 09:11:07;;;;;;;0.47;0.10;;;;;;;;;;5127610;28;20046;-71
2022/07/17 09:13:37;;;;;;;1.33;0.00;;;;;;;;;;5126971;27;20405;-71
2022/07/17 09:16:12;;;;;;;0.70;0.10;;;;;;;;;;5130466;27;20505;-71
2022/07/17 09:18:51;;;;;;;0.13;0.13;;;;;;;;;;5131008;27;20402;-71
2022/07/17 09:21:25;;;;;;;2.28;0.10;;;;;;;;;;5131209;27;20512;-70
2022/07/17 09:24:04;;;;;;;0.52;0.10;;;;;;;;;;5130659;27;20042;-72
2022/07/17 09:26:37;;;;;;;1.00;0.15;;;;;;;;;;5130827;27;20054;-71
2022/07/17 09:29:07;;;;;;;0.13;0.10;;;;;;;;;;5131056;27;20524;-70
2022/07/17 09:31:38;;;;;;;0.32;0.10;;;;;;;;;;5130351;27;20055;-71
2022/07/17 09:34:19;;;;;;;1.02;0.13;;;;;;;;;;5130592;27;20510;-70
2022/07/17 09:37:02;;;;;;;0.10;0.10;;;;;;;;;;5130974;27;20042;-71
2022/07/17 09:39:43;;;;;;;0.00;0.00;;;;;;;;;;5131182;27;20414;-74
2022/07/17 09:42:44;;;;;;;0.00;0.00;;;;;;;;;;5129307;27;20054;-70
2022/07/17 09:45:14;;;;;;;0.00;0.00;;;;;;;;;;5115228;27;20413;-70
2022/07/17 09:47:45;;;;;;;0.10;0.10;;;;;;;;;;5130895;27;20047;-70
2022/07/17 09:50:18;;;;;;;0.00;0.00;;;;;;;;;;5130435;27;20754;-73
2022/07/17 09:52:52;;;;;;;0.00;0.00;;;;;;;;;;5130257;27;20051;-71
2022/07/17 09:55:30;;;;;;;0.00;0.00;;;;;;;;;;5130470;27;20047;-71
2022/07/17 09:58:21;;;;;;;0.10;0.10;;;;;;;;;;5128246;27;20612;-72
2022/07/17 10:00:52;;;;;;;0.00;0.00;;;;;;;;;;5128584;27;20773;-71
2022/07/17 10:03:21;;;;;;;;;;;;;;;;;;5130665;27;20046;-71
2022/07/17 10:05:51;;;;;;;0.28;0.00;;;;;;;;;;5130208;27;19923;-71
2022/07/17 10:08:21;;;;;;;0.05;0.05;;;;;;;;;;5130144;27;20047;-71
2022/07/17 10:10:51;;;;;;;;;;;;;;;;;;5130955;27;20520;-71
2022/07/17 10:13:21;;;;;;;0.10;0.03;;;;;;;;;;5130122;27;19923;-71
2022/07/17 10:15:51;;;;;;;0.00;0.00;;;;;;;;;;5130048;27;20055;-70
2022/07/17 10:18:21;;;;;;;0.28;0.17;;;;;;;;;;5129832;27;20039;-71
2022/07/17 10:20:51;;;;;;;;;;;;;;;;;;5130134;27;20597;-71
2022/07/17 10:23:20;;;;;;;0.32;0.20;;;;;;;;;;5129737;27;19923;-70
2022/07/17 10:26:00;;;;;;;0.47;0.20;;;;;;;;;;5127095;27;20046;-71
2022/07/17 10:28:46;;;;;;;0.40;0.10;;;;;;;;;;5129266;27;20406;-70
2022/07/17 10:31:30;;;;;;;0.20;0.10;;;;;;;;;;5129955;27;20402;-71
2022/07/17 10:34:04;;;;;;;0.32;0.17;;;;;;;;;;5129872;27;20046;-71
2022/07/17 10:36:42;;;;;;;1.45;0.10;;;;;;;;;;5129631;27;20039;-70
2022/07/17 10:39:22;;;;;;;1.65;0.25;;;;;;;;;;5130011;27;20386;-70
2022/07/17 10:41:57;;;;;;;0.17;0.17;;;;;;;;;;5129391;27;20043;-71
2022/07/17 10:44:31;;;;;;;0.10;0.10;;;;;;;;;;5129204;27;20059;-71
2022/07/17 10:47:01;;;;;;;0.40;0.30;;;;;;;;;;5129047;27;20046;-69
2022/07/17 10:49:31;;;;;;;0.30;0.22;;;;;;;;;;5128902;27;20039;-71
2022/07/17 10:52:00;;;;;;;;;;;;;;;;;;5129851;27;20065;-70
2022/07/17 10:54:34;;;;;;;3.67;0.43;;;;;;;;;;5129810;27;19924;-69
2022/07/17 10:57:05;;;;;;;2.53;0.20;;;;;;;;;;5129261;27;20054;-70
2022/07/17 10:59:35;;;;;;;0.88;0.50;;;;;;;;;;5127667;27;20047;-68
2022/07/17 11:02:05;;;;;;;1.65;0.40;;;;;;;;;;5128962;27;20053;-71
2022/07/17 11:04:39;;;;;;;0.30;0.30;;;;;;;;;;5129270;27;20057;-70
2022/07/17 11:07:15;;;;;;;0.40;0.40;;;;;;;;;;5129132;27;20047;-70
2022/07/17 11:09:48;;;;;;;0.45;0.40;;;;;;;;;;5128885;27;20047;-70
2022/07/17 11:12:19;;;;;;;0.43;0.43;;;;;;;;;;5128253;27;20043;-71
2022/07/17 11:15:00;;;;;;;0.90;0.60;;;;;;;;;;5129321;27;20062;-70
2022/07/17 11:17:30;;;;;;;0.20;0.20;;;;;;;;;;5128926;27;20498;-70
2022/07/17 11:20:02;;;;;;;0.22;0.20;;;;;;;;;;5128751;27;20082;-71
2022/07/17 11:22:32;;;;;;;0.57;0.32;;;;;;;;;;5128615;27;20039;-71
2022/07/17 11:25:06;;;;;;;0.38;0.38;;;;;;;;;;5128804;27;20045;-71
2022/07/17 11:27:38;;;;;;;0.30;0.30;;;;;;;;;;5128908;27;20051;-71
2022/07/17 11:30:13;;;;;;;0.40;0.40;;;;;;;;;;5128590;27;20046;-70
2022/07/17 11:32:43;;;;;;;4.57;1.33;;;;;;;;;;5128520;27;20043;-71
2022/07/17 11:35:19;;;;;;;0.20;0.15;;;;;;;;;;5128182;27;20453;-69
2022/07/17 11:38:10;;;;;;;0.95;0.60;;;;;;;;;;5127694;27;20047;-70
2022/07/17 11:40:50;;;;;;;1.33;0.70;;;;;;;;;;5127327;27;20051;-71
2022/07/17 11:43:27;;;;;;;0.32;0.32;;;;;;;;;;5128418;27;20039;-71
2022/07/17 11:45:56;;;;;;;;;;;;;;;;;;5128274;27;20058;-69
2022/07/17 11:48:26;;;;;;;1.83;1.20;;;;;;;;;;5128259;27;20386;-70
2022/07/17 11:50:56;;;;;;;0.90;0.40;;;;;;;;;;5127929;27;20047;-70
2022/07/17 11:53:37;;;;;;;1.13;0.50;;;;;;;;;;5128072;27;20043;-70
2022/07/17 11:56:08;;;;;;;0.98;0.30;;;;;;;;;;5127959;27;20047;-71
2022/07/17 11:58:43;;;;;;;0.70;0.40;;;;;;;;;;5127775;27;20058;-70
2022/07/17 12:01:14;;;;;;;1.15;0.50;;;;;;;;;;5128191;27;20406;-70
2022/07/17 12:03:45;;;;;;;1.45;0.80;;;;;;;;;;5128532;27;20047;-70
2022/07/17 12:06:26;;;;;;;0.75;0.63;;;;;;;;;;5127915;27;20058;-70
2022/07/17 12:08:57;;;;;;;0.70;0.60;;;;;;;;;;5126593;27;20043;-69
2022/07/17 12:11:27;;;;;;;2.40;0.70;;;;;;;;;;5127655;27;20054;-71
2022/07/17 12:14:07;;;;;;;1.13;0.40;;;;;;;;;;5127562;27;20058;-71
2022/07/17 12:16:37;;;;;;;2.88;0.40;;;;;;;;;;5128020;27;20410;-70
2022/07/17 12:19:14;;;;;;;2.20;0.60;;;;;;;;;;5127981;27;20046;-75
2022/07/17 12:22:02;;;;;;;1.45;0.70;;;;;;;;;;5127523;27;20043;-73
2022/07/17 12:24:36;;;;;;;1.90;0.63;;;;;;;;;;5127277;27;20043;-70
2022/07/17 12:27:12;;;;;;;1.20;0.77;;;;;;;;;;5127572;28;20050;-71
2022/07/17 12:29:44;;;;;;;1.00;0.50;;;;;;;;;;5127038;28;20035;-72
2022/07/17 12:32:16;;;;;;;1.63;1.00;;;;;;;;;;5123404;28;20054;-72
2022/07/17 12:34:48;;;;;;;3.78;1.10;;;;;;;;;;5126909;28;20074;-70
2022/07/17 12:37:21;;;;;;;2.85;0.70;;;;;;;;;;5126804;28;20051;-71
2022/07/17 12:39:52;;;;;;;1.55;0.95;;;;;;;;;;5125055;28;20051;-70
2022/07/17 12:42:21;;;;;;;;;;;;;;;;;;5127232;28;20039;-72
2022/07/17 12:44:51;;;;;;;0.57;0.47;;;;;;;;;;5124096;28;19923;-71
2022/07/17 12:47:21;;;;;;;1.48;0.70;;;;;;;;;;5125391;27;20062;-72
2022/07/17 12:49:51;;;;;;;0.38;0.38;;;;;;;;;;5128520;27;20051;-71
2022/07/17 12:52:21;;;;;;;0.55;0.55;;;;;;;;;;5131118;27;20039;-72
2022/07/17 12:54:51;;;;;;;2.15;0.40;;;;;;;;;;5131646;27;20058;-69
2022/07/17 12:57:21;;;;;;;0.80;0.40;;;;;;;;;;5131469;27;20517;-70
2022/07/17 12:59:51;;;;;;;3.20;0.85;;;;;;;;;;5130736;27;20074;-73
2022/07/17 13:02:22;;;;;;;1.00;0.50;;;;;;;;;;5131127;27;20042;-71
2022/07/17 13:04:53;;;;;;;0.63;0.30;;;;;;;;;;5130423;27;20039;-74
2022/07/17 13:07:29;;;;;;;0.47;0.40;;;;;;;;;;5131320;27;20077;-74
2022/07/17 13:09:58;;;;;;;;;;;;;;;;;;5131611;27;20512;-74
2022/07/17 13:12:28;;;;;;;1.23;0.70;;;;;;;;;;5131544;27;19923;-73
2022/07/17 13:14:58;;;;;;;0.60;0.35;;;;;;;;;;5131254;27;20391;-72
2022/07/17 13:17:27;;;;;;;;;;;;;;;;;;5131743;27;20047;-71
2022/07/17 13:19:57;;;;;;;1.30;0.80;;;;;;;;;;5131155;27;19931;-75
2022/07/17 13:22:27;;;;;;;0.82;0.68;;;;;;;;;;5131259;27;20047;-70
2022/07/17 13:24:56;;;;;;;;;;;;;;;;;;5131156;27;20051;-72
2022/07/17 13:27:26;;;;;;;0.45;0.30;;;;;;;;;;5129699;27;19962;-71
2022/07/17 13:29:56;;;;;;;1.75;0.63;;;;;;;;;;5130454;27;20643;-70
2022/07/17 13:32:26;;;;;;;0.70;0.70;;;;;;;;;;5130697;27;20513;-72
2022/07/17 13:34:55;;;;;;;;;;;;;;;;;;5131208;27;20054;-70
2022/07/17 13:37:25;;;;;;;3.20;1.13;;;;;;;;;;5131003;27;19934;-72
2022/07/17 13:39:54;;;;;;;;;;;;;;;;;;5131246;27;20043;-71
2022/07/17 13:42:24;;;;;;;0.90;0.80;;;;;;;;;;5131485;27;19923;-72
2022/07/17 13:44:54;;;;;;;0.57;0.50;;;;;;;;;;5133042;27;20051;-72
2022/07/17 13:47:24;;;;;;;1.67;0.73;;;;;;;;;;5130488;27;20043;-69
2022/07/17 13:49:55;;;;;;;1.48;0.93;;;;;;;;;;5130977;27;20435;-71
2022/07/17 13:52:25;;;;;;;1.13;0.82;;;;;;;;;;5130455;27;20054;-71
2022/07/17 13:54:55;;;;;;;1.27;0.88;;;;;;;;;;5130678;27;20047;-73
2022/07/17 13:57:45;;;;;;;3.70;0.85;;;;;;;;;;5130594;27;20050;-73
2022/07/17 14:00:17;;;;;;;1.23;1.10;;;;;;;;;;5130684;27;20066;-71
2022/07/17 14:02:47;;;;;;;0.43;0.28;;;;;;;;;;5130573;27;20398;-71
2022/07/17 14:05:17;;;;;;;;;;;;;;;;;;5138232;27;20062;-69
2022/07/17 14:07:46;;;;;;;2.90;1.02;;;;;;;;;;5136364;27;19930;-68
2022/07/17 14:10:16;;;;;;;2.97;1.23;;;;;;;;;;5131102;27;20043;-70
2022/07/17 14:12:45;;;;;;;;;;;;;;;;;;5131702;27;20051;-72
2022/07/17 14:15:16;;;;;;;4.47;1.13;;;;;;;;;;5132408;27;19931;-73
2022/07/17 14:17:46;;;;;;;3.20;1.02;;;;;;;;;;5130260;27;20717;-69
2022/07/17 14:20:16;;;;;;;3.83;1.10;;;;;;;;;;5130658;27;20055;-73
2022/07/17 14:22:45;;;;;;;1.33;0.90;;;;;;;;;;5130569;27;20054;-71
2022/07/17 14:25:15;;;;;;;;;;;;;;;;;;5129609;27;20047;-70
2022/07/17 14:27:45;;;;;;;1.85;0.95;;;;;;;;;;5129783;27;19923;-71
2022/07/17 14:30:15;;;;;;;2.17;1.50;;;;;;;;;;5129643;27;20062;-71
2022/07/17 14:32:45;;;;;;;1.52;0.93;;;;;;;;;;5129787;27;20039;-70
2022/07/17 14:35:15;;;;;;;;;;;;;;;;;;5130067;27;20051;-70
2022/07/17 14:37:44;;;;;;;2.42;1.13;;;;;;;;;;5128807;27;19919;-71
2022/07/17 14:40:14;;;;;;;0.70;0.60;;;;;;;;;;5129533;27;20047;-71
2022/07/17 14:42:45;;;;;;;2.20;1.02;;;;;;;;;;5128911;27;20039;-68
2022/07/17 14:45:15;;;;;;;2.83;1.15;;;;;;;;;;5129696;27;20410;-71
2022/07/17 14:47:45;;;;;;;2.08;1.20;;;;;;;;;;5129637;27;20051;-71
2022/07/17 14:50:15;;;;;;;;;;;;;;;;;;5129633;27;20051;-70
2022/07/17 14:52:46;;;;;;;2.42;1.08;;;;;;;;;;5129218;27;19923;-72
2022/07/17 14:55:16;;;;;;;1.83;0.63;;;;;;;;;;5127595;27;20059;-73
2022/07/17 14:57:54;;;;;;;2.38;0.80;;;;;;;;;;5129062;27;20043;-71
2022/07/17 15:00:23;;;;;;;1.70;0.95;;;;;;;;;;5129173;27;20046;-70
2022/07/17 15:02:55;;;;;;;3.15;1.40;;;;;;;;;;5128842;27;20043;-72
2022/07/17 15:05:25;;;;;;;1.77;0.90;;;;;;;;;;5129018;27;20410;-70
2022/07/17 15:07:54;;;;;;;;;;;;;;;;;;5130090;27;20486;-71
2022/07/17 15:10:24;;;;;;;3.25;0.70;;;;;;;;;;5129199;27;19931;-71
2022/07/17 15:12:54;;;;;;;2.78;1.48;;;;;;;;;;5127867;27;20126;-71
2022/07/17 15:15:24;;;;;;;2.03;1.17;;;;;;;;;;5127785;27;20051;-74
2022/07/17 15:17:53;;;;;;;;;;;;;;;;;;5127676;27;20061;-72
2022/07/17 15:20:24;;;;;;;1.40;1.02;;;;;;;;;;5128551;27;20507;-71
2022/07/17 15:22:54;;;;;;;3.10;1.52;;;;;;;;;;5128497;27;20513;-72
2022/07/17 15:25:24;;;;;;;2.53;1.20;;;;;;;;;;5128541;27;20418;-71